Time;durP1;ratioP1;P1;durP2;ratioP2;P2;SDS_P1;SDS_P2;PMS_P1;PMS_P2;Temp;Humidity;BMP_temperature;BMP_pressure;BME280_temperature;BME280_humidity;BME280_pressure;Samples;Min_cycle;Max_cycle;Signal;HPM_P1;HPM_P2
2022/10/23 18:41:15;;;;;;;;;37.00;28.00;;;;;29.92;100.00;101391.84;5194463;26;408023;-47
2022/10/23 18:44:00;;;;;;;;;31.50;28.25;;;;;29.99;100.00;101388.56;6351074;22;50975;-47
2022/10/23 18:46:46;;;;;;;;;27.00;26.25;;;;;30.04;100.00;101395.56;6351741;22;51492;-47
2022/10/23 18:49:30;;;;;;;;;31.75;27.25;;;;;30.06;100.00;101410.91;6351511;22;51097;-46
2022/10/23 18:52:15;;;;;;;;;32.25;30.25;;;;;30.13;100.00;101414.97;6351514;22;51539;-45
2022/10/23 18:55:00;;;;;;;;;34.00;32.00;;;;;30.16;100.00;101416.59;6351318;22;51037;-44
2022/10/23 18:57:44;;;;;;;;;32.50;26.75;;;;;30.20;100.00;101417.22;6351354;22;51000;-44
2022/10/23 19:00:29;;;;;;;;;26.25;24.25;;;;;30.23;100.00;101426.09;6350642;22;51137;-46
2022/10/23 19:03:14;;;;;;;;;27.00;23.75;;;;;30.25;100.00;101417.75;6351705;22;51007;-46
2022/10/23 19:05:59;;;;;;;;;26.00;23.00;;;;;30.30;100.00;101435.63;6351128;22;51223;-46
2022/10/23 19:08:45;;;;;;;;;26.00;20.00;;;;;30.33;100.00;101434.50;6352384;22;51062;-46
2022/10/23 19:11:29;;;;;;;;;24.75;21.50;;;;;30.34;100.00;101436.25;6351044;22;50992;-48
2022/10/23 19:14:14;;;;;;;;;31.75;28.00;;;;;30.33;100.00;101423.53;6351204;22;51102;-45
2022/10/23 19:17:02;;;;;;;;;24.25;23.00;;;;;30.32;100.00;101430.00;6352145;22;51410;-46
2022/10/23 19:19:52;;;;;;;;;24.25;21.00;;;;;30.33;100.00;101431.75;6327160;22;51071;-44
2022/10/23 19:22:39;;;;;;;;;28.75;26.75;;;;;30.32;100.00;101431.91;6351404;22;51074;-45
2022/10/23 19:25:26;;;;;;;;;23.75;20.75;;;;;30.35;100.00;101442.63;6351648;22;51505;-45
2022/10/23 19:28:11;;;;;;;;;23.50;21.75;;;;;30.36;100.00;101438.88;6348798;22;51105;-45
2022/10/23 19:30:56;;;;;;;;;35.25;29.75;;;;;30.35;100.00;101432.53;6350846;22;51108;-45
2022/10/23 19:33:41;;;;;;;;;37.25;30.75;;;;;30.34;100.00;101421.63;6351067;22;51026;-45
2022/10/23 19:36:26;;;;;;;;;33.75;30.75;;;;;30.40;100.00;101448.66;6350962;22;51455;-46
2022/10/23 19:39:11;;;;;;;;;41.25;30.50;;;;;30.41;100.00;101456.75;6349657;22;51015;-45
2022/10/23 19:41:57;;;;;;;;;20.00;15.75;;;;;30.38;100.00;101445.13;6343705;22;51057;-46
2022/10/23 19:44:41;;;;;;;;;27.25;22.75;;;;;30.43;100.00;101465.75;6343838;22;51328;-47
2022/10/23 19:47:26;;;;;;;;;25.75;24.50;;;;;30.44;100.00;101473.00;6344393;22;51085;-46
2022/10/23 19:50:11;;;;;;;;;30.50;25.75;;;;;30.44;100.00;101463.88;6341908;22;51292;-48
2022/10/23 19:52:56;;;;;;;;;26.50;26.00;;;;;30.41;100.00;101459.50;6341161;22;51539;-48
2022/10/23 19:55:40;;;;;;;;;24.25;23.50;;;;;30.46;100.00;101467.38;6344165;22;51081;-47
2022/10/23 19:58:25;;;;;;;;;23.00;21.25;;;;;30.47;100.00;101463.63;6344557;22;51129;-46
2022/10/23 20:01:14;;;;;;;;;23.50;21.00;;;;;30.48;100.00;101464.53;6343728;22;51003;-44
2022/10/23 20:03:59;;;;;;;;;37.75;32.50;;;;;30.48;100.00;101465.41;6343892;22;51003;-45
2022/10/23 20:06:43;;;;;;;;;45.00;35.00;;;;;30.49;100.00;101474.50;6344341;22;51611;-46
2022/10/23 20:09:27;;;;;;;;;44.25;34.00;;;;;30.47;100.00;101473.75;6343496;22;51274;-47
2022/10/23 20:12:12;;;;;;;;;49.75;39.25;;;;;30.44;100.00;101474.84;6343651;22;50999;-47
2022/10/23 20:14:57;;;;;;;;;47.00;38.00;;;;;30.40;100.00;101479.69;6343087;22;51288;-44
2022/10/23 20:17:42;;;;;;;;;49.75;38.50;;;;;30.39;100.00;101480.69;6343756;22;51647;-45
2022/10/23 20:20:26;;;;;;;;;51.50;40.25;;;;;30.38;100.00;101487.19;6343940;22;51006;-47
2022/10/23 20:23:10;;;;;;;;;37.75;33.50;;;;;30.35;100.00;101492.03;6343737;22;51278;-49
2022/10/23 20:26:03;;;;;;;;;43.50;35.75;;;;;30.33;100.00;101507.72;6340165;22;51052;-46
2022/10/23 20:28:51;;;;;;;;;41.75;33.75;;;;;30.29;100.00;101493.38;6342014;22;51065;-46
2022/10/23 20:31:35;;;;;;;;;34.75;32.00;;;;;30.26;100.00;101496.38;6341552;22;51536;-44
2022/10/23 20:34:20;;;;;;;;;43.50;35.50;;;;;30.20;100.00;101502.31;6318492;22;51534;-46
2022/10/23 20:37:05;;;;;;;;;44.75;36.00;;;;;30.24;100.00;101509.31;6319356;22;51042;-46
2022/10/23 20:39:50;;;;;;;;;45.75;35.25;;;;;30.22;100.00;101519.53;6341166;22;51351;-46
2022/10/23 20:42:34;;;;;;;;;45.75;38.00;;;;;30.20;100.00;101518.78;6342350;22;51554;-48
2022/10/23 20:45:19;;;;;;;;;46.50;37.75;;;;;30.17;100.00;101530.88;6340924;22;51860;-45
2022/10/23 20:48:05;;;;;;;;;41.00;34.25;;;;;30.16;100.00;101531.00;6340684;22;51023;-48
2022/10/23 20:50:49;;;;;;;;;44.75;34.75;;;;;30.16;100.00;101533.72;6342145;22;50955;-46
2022/10/23 20:53:35;;;;;;;;;42.75;35.00;;;;;30.16;100.00;101536.47;6341410;22;51065;-46
2022/10/23 20:56:28;;;;;;;;;39.75;31.75;;;;;30.14;100.00;101525.59;6318328;22;51078;-47
2022/10/23 20:59:16;;;;;;;;;41.50;33.75;;;;;30.19;100.00;101538.97;6319859;22;50979;-47
2022/10/23 21:02:01;;;;;;;;;40.50;32.75;;;;;30.17;100.00;101544.59;6343124;22;51156;-44
2022/10/23 21:04:46;;;;;;;;;46.00;36.50;;;;;30.13;100.00;101554.03;6341762;22;51316;-47
2022/10/23 21:07:31;;;;;;;;;49.25;37.75;;;;;30.13;100.00;101552.19;6341976;22;51685;-46
2022/10/23 21:10:16;;;;;;;;;41.00;32.50;;;;;30.12;100.00;101553.16;6342871;22;51141;-46
2022/10/23 21:13:01;;;;;;;;;43.25;32.50;;;;;30.12;100.00;101547.69;6341596;22;50975;-47
2022/10/23 21:15:46;;;;;;;;;35.50;32.00;;;;;30.15;100.00;101541.06;6342567;22;51368;-46
2022/10/23 21:18:30;;;;;;;;;31.75;26.50;;;;;30.12;100.00;101530.31;6341272;22;51090;-47
2022/10/23 21:21:18;;;;;;;;;39.25;29.25;;;;;30.12;100.00;101539.44;6343322;22;51006;-45
2022/10/23 21:24:09;;;;;;;;;36.75;28.25;;;;;30.09;100.00;101539.66;6342032;22;51189;-47
2022/10/23 21:26:54;;;;;;;;;34.75;29.50;;;;;30.09;100.00;101536.06;6342578;22;51102;-47
2022/10/23 21:29:38;;;;;;;;;26.25;24.75;;;;;30.07;100.00;101544.38;6339826;22;51015;-46
2022/10/23 21:32:23;;;;;;;;;32.50;29.50;;;;;30.06;100.00;101530.78;6340399;22;50960;-44
2022/10/23 21:35:08;;;;;;;;;33.25;29.75;;;;;30.07;100.00;101543.50;6341343;22;51313;-47
2022/10/23 21:37:53;;;;;;;;;37.00;28.75;;;;;30.04;100.00;101541.88;6318064;22;51728;-46
2022/10/23 21:40:38;;;;;;;;;38.00;27.00;;;;;29.99;100.00;101536.75;6340108;22;51369;-44
2022/10/23 21:43:23;;;;;;;;;42.50;30.50;;;;;29.99;100.00;101541.31;6317932;22;51571;-46
2022/10/23 21:46:14;;;;;;;;;36.25;26.00;;;;;30.01;100.00;101531.13;6341236;22;51046;-49
2022/10/23 21:48:59;;;;;;;;;39.25;28.00;;;;;30.03;100.00;101526.41;6340544;22;50951;-44
2022/10/23 21:51:44;;;;;;;;;33.75;25.50;;;;;30.05;100.00;101529.91;6341070;22;51468;-45
2022/10/23 21:54:29;;;;;;;;;26.25;25.00;;;;;30.07;100.00;101522.44;6341533;22;51308;-46
2022/10/23 21:57:14;;;;;;;;;35.25;28.50;;;;;30.02;100.00;101521.91;6342788;22;51128;-46
2022/10/23 21:59:59;;;;;;;;;26.75;21.75;;;;;30.06;100.00;101517.06;6342527;22;51060;-45
2022/10/23 22:02:44;;;;;;;;;21.50;19.50;;;;;30.06;100.00;101530.78;6340939;22;51349;-43
2022/10/23 22:05:28;;;;;;;;;29.75;24.00;;;;;30.05;100.00;101524.44;6339390;22;51363;-47
2022/10/23 22:08:13;;;;;;;;;27.00;22.00;;;;;30.08;100.00;101526.94;6319003;22;51104;-44
2022/10/23 22:10:58;;;;;;;;;17.00;11.00;;;;;30.11;100.00;101520.31;6341204;22;51485;-46
2022/10/23 22:13:43;;;;;;;;;13.00;9.00;;;;;30.13;100.00;101504.63;6342142;22;51657;-45
2022/10/23 22:16:28;;;;;;;;;12.25;9.00;;;;;30.17;100.00;101494.28;6342112;22;51022;-45
2022/10/23 22:19:15;;;;;;;;;12.25;7.25;;;;;30.16;100.00;101481.59;6316645;22;50935;-45
2022/10/23 22:21:59;;;;;;;;;6.00;4.75;;;;;30.20;100.00;101478.50;6342616;22;51022;-44
2022/10/23 22:24:44;;;;;;;;;9.00;4.75;;;;;30.19;100.00;101478.59;6342504;22;51139;-47
2022/10/23 22:27:28;;;;;;;;;9.25;6.75;;;;;30.18;100.00;101466.75;6343294;22;51026;-46
2022/10/23 22:30:13;;;;;;;;;6.25;5.50;;;;;30.17;100.00;101473.22;6341940;22;51101;-48
2022/10/23 22:32:58;;;;;;;;;8.50;8.00;;;;;30.16;100.00;101465.13;6342466;22;51082;-46
2022/10/23 22:35:42;;;;;;;;;6.25;5.25;;;;;30.11;100.00;101460.84;6318759;22;51107;-45
2022/10/23 22:38:27;;;;;;;;;9.75;6.00;;;;;30.11;100.00;101462.69;6343266;22;51051;-46
2022/10/23 22:41:11;;;;;;;;;8.50;5.00;;;;;30.10;100.00;101453.59;6342708;22;51024;-48
2022/10/23 22:43:57;;;;;;;;;12.00;7.75;;;;;30.10;100.00;101453.59;6343498;22;51473;-45
2022/10/23 22:46:42;;;;;;;;;8.00;6.50;;;;;30.09;100.00;101449.09;6343203;22;51050;-46
2022/10/23 22:49:27;;;;;;;;;7.25;4.75;;;;;30.07;100.00;101440.09;6342864;22;51224;-46
2022/10/23 22:52:12;;;;;;;;;8.75;6.00;;;;;30.07;100.00;101436.50;6343630;22;51074;-46
2022/10/23 22:54:56;;;;;;;;;6.50;4.75;;;;;30.05;100.00;101428.38;6343018;22;51087;-45
2022/10/23 22:57:41;;;;;;;;;8.25;5.50;;;;;30.02;100.00;101424.97;6343061;22;51032;-46
2022/10/23 23:00:26;;;;;;;;;12.00;6.00;;;;;30.01;100.00;101420.47;6343264;22;51097;-46
2022/10/23 23:03:11;;;;;;;;;4.00;4.00;;;;;30.00;100.00;101422.34;6343332;22;51190;-47
2022/10/23 23:05:56;;;;;;;;;7.25;6.00;;;;;29.95;100.00;101409.00;6342864;22;51021;-46
2022/10/23 23:08:41;;;;;;;;;9.75;5.00;;;;;29.99;100.00;101424.25;6343358;22;51402;-46
2022/10/23 23:11:26;;;;;;;;;8.50;5.00;;;;;29.94;100.00;101406.38;6341739;22;50950;-45
2022/10/23 23:14:11;;;;;;;;;7.75;5.50;;;;;29.97;100.00;101414.34;6342627;22;51101;-44
2022/10/23 23:16:55;;;;;;;;;6.00;6.00;;;;;29.96;100.00;101402.50;6344013;22;51022;-46
2022/10/23 23:19:40;;;;;;;;;6.50;4.75;;;;;29.95;100.00;101394.38;6345264;22;51340;-47
2022/10/23 23:22:24;;;;;;;;;10.50;6.25;;;;;29.96;100.00;101390.66;6344816;22;51082;-46
2022/10/23 23:25:09;;;;;;;;;9.00;5.25;;;;;29.95;100.00;101389.78;6344958;22;51391;-45
2022/10/23 23:27:53;;;;;;;;;11.25;8.00;;;;;29.95;100.00;101383.41;6344877;22;51185;-44
2022/10/23 23:30:42;;;;;;;;;6.25;6.25;;;;;29.94;100.00;101374.31;6345147;22;51034;-46
2022/10/23 23:33:27;;;;;;;;;5.50;4.50;;;;;29.94;100.00;101377.06;6344672;22;51090;-46
2022/10/23 23:36:13;;;;;;;;;6.75;5.00;;;;;29.88;100.00;101369.28;6344500;22;51159;-46
2022/10/23 23:38:58;;;;;;;;;4.75;4.75;;;;;29.93;100.00;101378.03;6343786;22;51118;-47
2022/10/23 23:41:44;;;;;;;;;8.75;5.25;;;;;29.97;100.00;101375.94;6344732;22;51020;-46
2022/10/23 23:44:29;;;;;;;;;5.75;5.25;;;;;29.98;100.00;101369.47;6344148;22;51545;-46
2022/10/23 23:47:13;;;;;;;;;8.50;5.75;;;;;29.90;100.00;101348.06;6344651;22;51069;-46
2022/10/23 23:49:57;;;;;;;;;7.50;5.25;;;;;29.95;100.00;101353.22;6344009;22;51066;-45
2022/10/23 23:52:42;;;;;;;;;8.50;5.75;;;;;29.94;100.00;101355.09;6343209;22;51090;-46
2022/10/23 23:55:26;;;;;;;;;5.50;4.50;;;;;29.89;100.00;101337.22;6344325;22;51061;-45
2022/10/23 23:58:11;;;;;;;;;5.75;4.75;;;;;29.89;100.00;101346.34;6345435;22;51102;-46
